createdAt,value
2018-02-19T00:00:44.614Z,5.53
2018-02-19T00:03:12.164Z,5.70
2018-02-19T00:05:39.657Z,6.17
2018-02-19T00:08:07.185Z,6.63
2018-02-19T00:10:34.681Z,5.90
2018-02-19T00:13:02.181Z,5.30
2018-02-19T00:15:30.464Z,4.67
2018-02-19T00:17:57.965Z,5.43
2018-02-19T00:20:25.484Z,5.27
2018-02-19T00:22:53.960Z,4.90
2018-02-19T00:25:22.380Z,5.57
2018-02-19T00:27:49.876Z,5.47
2018-02-19T00:30:19.260Z,5.70
2018-02-19T00:32:47.744Z,5.07
2018-02-19T00:35:15.241Z,5.50
2018-02-19T00:37:44.764Z,5.53
2018-02-19T00:40:12.265Z,5.87
2018-02-19T00:42:39.781Z,5.13
2018-02-19T00:45:07.269Z,5.40
2018-02-19T00:47:34.809Z,4.40
2018-02-19T00:50:02.305Z,5.40
2018-02-19T00:52:30.569Z,4.97
2018-02-19T00:54:58.089Z,5.53
2018-02-19T00:57:26.537Z,4.90
2018-02-19T00:59:54.062Z,4.60
2018-02-19T01:02:22.325Z,5.30
2018-02-19T01:04:49.843Z,4.93
2018-02-19T01:07:17.342Z,5.50
2018-02-19T01:09:44.886Z,5.00
2018-02-19T01:12:12.419Z,4.40
2018-02-19T01:14:39.910Z,5.00
2018-02-19T01:17:07.430Z,4.10
2018-02-19T01:19:34.925Z,4.90
2018-02-19T01:22:02.439Z,5.33
2018-02-19T01:24:29.932Z,5.47
2018-02-19T01:26:57.461Z,4.80
2018-02-19T01:29:24.960Z,5.10
2018-02-19T01:31:52.497Z,4.33
2018-02-19T01:34:19.992Z,5.27
2018-02-19T01:36:49.166Z,4.60
2018-02-19T01:39:16.688Z,4.67
2018-02-19T01:41:44.197Z,4.60
2018-02-19T01:44:12.487Z,4.70
2018-02-19T01:46:41.707Z,5.30
2018-02-19T01:49:09.241Z,5.47
2018-02-19T01:51:37.498Z,5.03
2018-02-19T01:54:05.765Z,4.47
2018-02-19T01:56:35.213Z,4.93
2018-02-19T01:59:02.738Z,4.60
2018-02-19T02:01:30.249Z,4.83
2018-02-19T02:03:57.753Z,5.53
2018-02-19T02:06:26.037Z,5.57
2018-02-19T02:08:54.293Z,6.17
2018-02-19T02:11:22.561Z,5.07
2018-02-19T02:13:50.080Z,4.30
2018-02-19T02:16:17.579Z,5.33
2018-02-19T02:18:45.873Z,4.70
2018-02-19T02:21:14.151Z,5.10
2018-02-19T02:23:42.433Z,4.63
2018-02-19T02:26:10.698Z,4.70
2018-02-19T02:28:38.977Z,4.90
2018-02-19T02:31:09.219Z,5.00
2018-02-19T02:33:36.724Z,4.97
2018-02-19T02:36:04.245Z,4.10
2018-02-19T02:38:31.736Z,4.77
2018-02-19T02:41:01.194Z,5.10
2018-02-19T02:43:28.693Z,4.50
2018-02-19T02:45:56.197Z,5.23
2018-02-19T02:48:23.722Z,5.00
2018-02-19T02:50:51.986Z,4.37
2018-02-19T02:53:19.503Z,4.37
2018-02-19T02:55:47.002Z,4.37
2018-02-19T02:58:14.525Z,5.17
2018-02-19T03:00:42.018Z,6.10
2018-02-19T03:03:09.519Z,4.53
2018-02-19T03:05:37.050Z,5.00
2018-02-19T03:08:05.321Z,4.80
2018-02-19T03:10:32.845Z,4.73
2018-02-19T03:13:00.345Z,5.00
2018-02-19T03:15:28.624Z,4.23
2018-02-19T03:17:56.890Z,4.77
2018-02-19T03:20:26.124Z,5.03
2018-02-19T03:22:53.644Z,4.83
2018-02-19T03:25:21.913Z,4.27
2018-02-19T03:27:50.193Z,4.40
2018-02-19T03:30:18.498Z,4.73
2018-02-19T03:32:46.001Z,4.90
2018-02-19T03:35:13.530Z,4.70
2018-02-19T03:37:41.029Z,4.73
2018-02-19T03:40:09.313Z,4.90
2018-02-19T03:42:36.809Z,5.20
2018-02-19T03:45:04.347Z,4.17
2018-02-19T03:47:32.808Z,3.93
2018-02-19T03:50:01.070Z,4.57
2018-02-19T03:52:30.298Z,4.67
2018-02-19T03:54:58.548Z,3.87
2018-02-19T03:57:26.838Z,5.40
2018-02-19T03:59:56.051Z,5.10
2018-02-19T04:02:23.565Z,4.90
2018-02-19T04:04:51.081Z,4.83
2018-02-19T04:07:18.580Z,4.40
2018-02-19T04:09:46.101Z,5.13
2018-02-19T04:12:13.621Z,4.43
2018-02-19T04:14:41.900Z,4.13
2018-02-19T04:17:10.153Z,4.03
2018-02-19T04:19:38.449Z,4.40
2018-02-19T04:22:06.709Z,4.53
2018-02-19T04:24:34.973Z,4.40
2018-02-19T04:27:02.497Z,4.47
2018-02-19T04:29:30.945Z,4.40
2018-02-19T04:31:58.469Z,4.87
2018-02-19T04:34:26.734Z,4.77
2018-02-19T04:36:54.261Z,5.07
2018-02-19T04:39:21.761Z,4.90
2018-02-19T04:41:50.977Z,4.90
2018-02-19T04:44:20.202Z,4.17
2018-02-19T04:46:47.697Z,5.63
2018-02-19T04:49:15.217Z,4.60
2018-02-19T04:51:42.752Z,4.40
2018-02-19T04:54:11.025Z,4.13
2018-02-19T04:56:38.517Z,4.40
2018-02-19T04:59:06.013Z,3.63
2018-02-19T05:01:35.492Z,4.10
2018-02-19T05:04:02.989Z,4.60
2018-02-19T05:06:31.282Z,4.40
2018-02-19T05:08:58.773Z,4.43
2018-02-19T05:11:26.272Z,4.20
2018-02-19T05:13:56.513Z,4.63
2018-02-19T05:16:24.017Z,4.53
2018-02-19T05:18:51.564Z,4.60
2018-02-19T05:21:19.064Z,4.63
2018-02-19T05:23:47.316Z,3.90
2018-02-19T05:26:14.836Z,4.87
2018-02-19T05:28:43.277Z,4.37
2018-02-19T05:31:11.618Z,4.57
2018-02-19T05:33:39.159Z,4.80
2018-02-19T05:36:06.653Z,5.10
2018-02-19T05:38:34.940Z,4.90
2018-02-19T05:41:03.201Z,4.10
2018-02-19T05:43:31.480Z,4.27
2018-02-19T05:45:58.970Z,3.77
2018-02-19T05:48:28.494Z,4.30
2018-02-19T05:50:55.985Z,4.30
2018-02-19T05:53:23.485Z,4.97
2018-02-19T05:55:51.005Z,4.53
2018-02-19T05:58:18.510Z,4.40
2018-02-19T06:00:46.025Z,4.67
2018-02-19T06:03:13.521Z,4.30
2018-02-19T06:05:41.048Z,4.37
2018-02-19T06:08:09.313Z,4.60
2018-02-19T06:10:37.619Z,4.73
2018-02-19T06:13:05.144Z,4.00
2018-02-19T06:15:32.640Z,4.60
2018-02-19T06:18:02.106Z,3.40
2018-02-19T06:20:29.602Z,4.57
2018-02-19T06:22:57.120Z,3.83
2018-02-19T06:25:25.380Z,4.20
2018-02-19T06:27:52.897Z,4.37
2018-02-19T06:30:20.399Z,3.87
2018-02-19T06:32:47.914Z,4.00
2018-02-19T06:35:15.406Z,3.97
2018-02-19T06:37:42.896Z,4.33
2018-02-19T06:40:11.185Z,3.57
2018-02-19T06:42:38.683Z,4.80
2018-02-19T06:45:06.177Z,4.23
2018-02-19T06:47:34.470Z,4.83
2018-02-19T06:50:02.734Z,4.57
2018-02-19T06:52:31.013Z,4.33
2018-02-19T06:54:59.370Z,4.17
2018-02-19T06:57:27.286Z,4.13
2018-02-19T06:59:54.838Z,4.40
2018-02-19T07:02:22.353Z,4.40
2018-02-19T07:04:51.593Z,4.10
2018-02-19T07:07:19.464Z,4.40
2018-02-19T07:09:48.967Z,4.40
2018-02-19T07:12:16.833Z,4.13
2018-02-19T07:14:44.514Z,4.47
2018-02-19T07:17:12.350Z,4.10
2018-02-19T07:19:41.068Z,3.97
2018-02-19T07:22:08.837Z,4.80
2018-02-19T07:24:37.163Z,4.37
2018-02-19T07:27:04.687Z,4.40
2018-02-19T07:29:32.196Z,27.27
2018-02-19T07:31:59.708Z,34.00
2018-02-19T07:34:27.996Z,17.83
2018-02-19T07:36:56.269Z,18.57
2018-02-19T07:39:24.558Z,17.27
2018-02-19T07:41:52.821Z,15.90
2018-02-19T07:44:21.110Z,16.00
2018-02-19T07:46:49.389Z,15.77
2018-02-19T07:49:17.821Z,15.77
2018-02-19T07:51:45.345Z,16.50
2018-02-19T07:54:12.854Z,16.30
2018-02-19T07:56:40.406Z,18.20
2018-02-19T07:59:08.670Z,16.07
2018-02-19T08:01:36.194Z,17.90
2018-02-19T08:04:05.658Z,15.57
2018-02-19T08:06:33.933Z,16.93
2018-02-19T08:09:02.229Z,15.57
2018-02-19T08:11:29.737Z,16.10
2018-02-19T08:13:57.264Z,14.80
2018-02-19T08:16:24.765Z,15.03
2018-02-19T08:18:53.053Z,15.07
2018-02-19T08:21:21.349Z,13.60
2018-02-19T08:23:48.854Z,12.70
2018-02-19T08:26:16.385Z,13.13
2018-02-19T08:28:43.885Z,12.60
2018-02-19T08:31:12.917Z,14.17
2018-02-19T08:33:40.421Z,12.00
2018-02-19T08:36:07.929Z,12.90
2018-02-19T08:38:35.449Z,11.57
2018-02-19T08:41:03.723Z,11.80
2018-02-19T08:43:32.016Z,11.37
2018-02-19T08:46:00.286Z,10.77
2018-02-19T08:48:28.577Z,11.33
2018-02-19T08:50:56.093Z,11.30
2018-02-19T08:53:23.589Z,9.33
2018-02-19T08:55:51.873Z,10.30
2018-02-19T08:58:19.369Z,9.17
2018-02-19T09:00:46.897Z,10.00
2018-02-19T09:03:14.401Z,9.83
2018-02-19T09:05:41.957Z,9.70
2018-02-19T09:08:09.446Z,9.50
2018-02-19T09:10:37.701Z,9.43
2018-02-19T09:13:05.985Z,9.70
2018-02-19T09:15:35.207Z,9.67
2018-02-19T09:18:02.742Z,9.07
2018-02-19T09:20:31.009Z,8.70
2018-02-19T09:22:58.530Z,8.57
2018-02-19T09:25:26.029Z,8.70
2018-02-19T09:27:54.317Z,9.10
2018-02-19T09:30:22.585Z,7.93
2018-02-19T09:32:50.849Z,7.27
2018-02-19T09:35:18.369Z,8.57
2018-02-19T09:37:45.856Z,7.93
2018-02-19T09:40:16.108Z,7.57
2018-02-19T09:42:43.598Z,7.60
2018-02-19T09:45:11.120Z,7.60
2018-02-19T09:47:38.617Z,8.40
2018-02-19T09:50:06.129Z,8.50
2018-02-19T09:52:34.401Z,7.83
2018-02-19T09:55:02.665Z,8.37
2018-02-19T09:57:30.953Z,6.70
2018-02-19T09:59:59.212Z,7.93
2018-02-19T10:02:29.481Z,7.83
2018-02-19T10:04:56.981Z,7.80
2018-02-19T10:07:26.009Z,6.77
2018-02-19T10:09:53.515Z,7.27
2018-02-19T10:12:21.042Z,6.50
2018-02-19T10:14:49.497Z,8.00
2018-02-19T10:17:17.002Z,6.70
2018-02-19T10:19:44.526Z,6.30
2018-02-19T10:22:12.021Z,5.50
2018-02-19T10:24:39.545Z,7.33
2018-02-19T10:27:07.076Z,7.47
2018-02-19T10:29:35.406Z,7.17
2018-02-19T10:32:02.909Z,7.57
2018-02-19T10:34:31.193Z,6.83
2018-02-19T10:36:58.701Z,6.30
2018-02-19T10:39:26.200Z,6.50
2018-02-19T10:41:54.485Z,6.37
2018-02-19T10:44:21.985Z,6.40
2018-02-19T10:46:49.509Z,6.87
2018-02-19T10:49:17.002Z,5.70
2018-02-19T10:51:44.517Z,6.27
2018-02-19T10:54:12.027Z,7.30
2018-02-19T10:56:39.613Z,6.90
2018-02-19T10:59:07.880Z,6.90
2018-02-19T11:01:36.145Z,6.47
2018-02-19T11:04:04.484Z,6.27
2018-02-19T11:06:31.948Z,6.63
2018-02-19T11:08:59.468Z,6.07
2018-02-19T11:11:27.922Z,6.30
2018-02-19T11:13:56.201Z,6.30
2018-02-19T11:16:24.465Z,6.53
2018-02-19T11:18:52.753Z,6.53
2018-02-19T11:21:21.952Z,5.53
2018-02-19T11:23:50.217Z,6.83
2018-02-19T11:26:18.500Z,5.63
2018-02-19T11:28:46.765Z,5.70
2018-02-19T11:31:14.282Z,5.43
2018-02-19T11:33:41.773Z,6.87
2018-02-19T11:36:10.064Z,5.80
2018-02-19T11:38:38.337Z,6.43
2018-02-19T11:41:06.621Z,5.90
2018-02-19T11:43:35.789Z,6.10
2018-02-19T11:46:03.289Z,6.47
2018-02-19T11:48:32.793Z,6.10
2018-02-19T11:51:00.292Z,5.47
2018-02-19T11:53:27.813Z,6.40
2018-02-19T11:55:55.300Z,5.83
2018-02-19T11:58:22.832Z,6.30
2018-02-19T12:00:50.326Z,6.17
2018-02-19T12:03:17.825Z,6.63
2018-02-19T12:05:45.364Z,6.37
2018-02-19T12:08:13.625Z,5.70
2018-02-19T12:10:41.142Z,5.97
2018-02-19T12:13:08.633Z,5.17
2018-02-19T12:15:37.664Z,5.77
2018-02-19T12:18:05.166Z,6.03
2018-02-19T12:20:32.669Z,6.30
2018-02-19T12:23:00.969Z,4.80
2018-02-19T12:25:28.489Z,6.57
2018-02-19T12:27:56.773Z,5.60
2018-02-19T12:30:25.034Z,5.97
2018-02-19T12:32:53.318Z,5.60
2018-02-19T12:35:21.583Z,5.70
2018-02-19T12:37:49.865Z,5.97
2018-02-19T12:40:18.162Z,5.73
2018-02-19T12:42:45.670Z,5.73
2018-02-19T12:45:13.202Z,6.10
2018-02-19T12:47:40.711Z,5.30
2018-02-19T12:50:08.998Z,5.73
2018-02-19T12:52:37.257Z,5.87
2018-02-19T12:55:05.552Z,4.57
2018-02-19T12:57:34.770Z,4.77
2018-02-19T13:00:02.270Z,5.77
2018-02-19T13:02:29.796Z,6.53
2018-02-19T13:04:57.292Z,6.07
2018-02-19T13:07:26.760Z,5.13
2018-02-19T13:09:54.253Z,5.80
2018-02-19T13:12:21.781Z,5.97
2018-02-19T13:14:49.302Z,5.43
2018-02-19T13:17:16.822Z,5.53
2018-02-19T13:19:45.830Z,4.90
2018-02-19T13:22:14.105Z,5.30
2018-02-19T13:24:42.397Z,5.70
2018-02-19T13:27:09.893Z,6.17
2018-02-19T13:29:37.404Z,5.37
2018-02-19T13:32:05.674Z,6.03
2018-02-19T13:34:33.962Z,4.83
2018-02-19T13:37:01.461Z,4.97
2018-02-19T13:39:28.978Z,5.67
2018-02-19T13:41:56.469Z,4.97
2018-02-19T13:44:23.993Z,4.83
2018-02-19T13:46:51.486Z,5.70
2018-02-19T13:49:18.981Z,5.10
2018-02-19T13:51:47.278Z,4.47
2018-02-19T13:54:14.773Z,4.77
2018-02-19T13:56:44.245Z,5.07
2018-02-19T13:59:11.742Z,5.70
2018-02-19T14:01:39.272Z,5.47
2018-02-19T14:04:06.769Z,5.00
2018-02-19T14:06:34.296Z,4.83
2018-02-19T14:09:01.789Z,5.37
2018-02-19T14:11:29.310Z,5.83
2018-02-19T14:13:58.804Z,5.03
2018-02-19T14:16:27.234Z,5.73
2018-02-19T14:18:55.520Z,6.60
2018-02-19T14:21:23.781Z,4.60
2018-02-19T14:23:52.083Z,5.20
2018-02-19T14:26:19.604Z,5.67
2018-02-19T14:28:47.130Z,4.30
2018-02-19T14:31:14.621Z,5.17
2018-02-19T14:33:43.078Z,5.37
2018-02-19T14:36:10.602Z,4.93
2018-02-19T14:38:38.094Z,5.83
2018-02-19T14:41:07.575Z,5.63
2018-02-19T14:43:35.068Z,6.00
2018-02-19T14:46:04.289Z,5.27
2018-02-19T14:48:32.554Z,5.37
2018-02-19T14:51:03.549Z,5.33
2018-02-19T14:53:31.998Z,6.07
2018-02-19T14:56:00.261Z,5.33
2018-02-19T14:58:30.525Z,4.73
2018-02-19T15:00:58.017Z,5.20
2018-02-19T15:03:25.542Z,5.30
2018-02-19T15:05:53.097Z,5.30
2018-02-19T15:08:21.345Z,5.27
2018-02-19T15:10:48.865Z,4.90
2018-02-19T15:13:16.393Z,4.73
2018-02-19T15:15:43.885Z,5.53
2018-02-19T15:18:12.149Z,5.13
2018-02-19T15:20:39.673Z,6.00
2018-02-19T15:23:07.170Z,6.50
2018-02-19T15:25:34.693Z,5.50
2018-02-19T15:28:02.209Z,5.70
2018-02-19T15:30:30.494Z,5.77
2018-02-19T15:32:57.993Z,5.80
2018-02-19T15:35:25.529Z,5.10
2018-02-19T15:37:53.685Z,5.67
2018-02-19T15:40:21.189Z,6.47
2018-02-19T15:42:48.722Z,6.33
2018-02-19T15:45:16.223Z,5.87
2018-02-19T15:47:46.480Z,5.60
2018-02-19T15:50:13.977Z,5.67
2018-02-19T15:52:41.507Z,6.40
2018-02-19T15:55:09.005Z,5.67
2018-02-19T15:57:36.533Z,5.27
2018-02-19T16:00:04.049Z,5.57
2018-02-19T16:02:32.313Z,5.20
2018-02-19T16:05:00.611Z,5.50
2018-02-19T16:07:28.110Z,5.57
2018-02-19T16:09:55.633Z,5.70
2018-02-19T16:12:23.137Z,5.03
2018-02-19T16:14:50.661Z,5.17
2018-02-19T16:17:18.156Z,5.30
2018-02-19T16:19:45.699Z,6.23
2018-02-19T16:22:13.202Z,5.73
2018-02-19T16:24:41.464Z,5.73
2018-02-19T16:27:09.764Z,6.00
2018-02-19T16:29:37.270Z,6.00
2018-02-19T16:32:04.793Z,5.00
2018-02-19T16:34:32.289Z,5.33
2018-02-19T16:36:59.816Z,5.43
2018-02-19T16:39:27.352Z,5.97
2018-02-19T16:41:54.881Z,5.40
2018-02-19T16:44:23.148Z,5.30
2018-02-19T16:46:52.358Z,5.50
2018-02-19T16:49:20.668Z,5.40
2018-02-19T16:51:48.169Z,5.77
2018-02-19T16:54:15.695Z,5.80
2018-02-19T16:56:44.170Z,5.60
2018-02-19T16:59:11.701Z,4.93
2018-02-19T17:01:39.211Z,6.33
2018-02-19T17:04:06.741Z,5.87
2018-02-19T17:06:34.245Z,5.60
2018-02-19T17:09:01.751Z,5.70
2018-02-19T17:11:29.277Z,5.77
2018-02-19T17:13:57.549Z,5.60
2018-02-19T17:16:25.850Z,5.03
2018-02-19T17:18:53.345Z,5.10
2018-02-19T17:21:22.397Z,5.10
2018-02-19T17:23:49.898Z,6.47
2018-02-19T17:26:17.440Z,6.00
2018-02-19T17:28:45.903Z,5.40
2018-02-19T17:31:13.398Z,5.57
2018-02-19T17:33:42.433Z,5.77
2018-02-19T17:36:09.945Z,5.83
2018-02-19T17:38:37.461Z,5.67
2018-02-19T17:41:04.957Z,6.10
2018-02-19T17:43:32.488Z,5.63
2018-02-19T17:45:59.993Z,6.23
2018-02-19T17:48:27.517Z,6.00
2018-02-19T17:50:55.014Z,5.47
2018-02-19T17:53:23.277Z,5.67
2018-02-19T17:55:51.578Z,5.27
2018-02-19T17:58:19.103Z,4.93
2018-02-19T18:00:46.621Z,5.70
2018-02-19T18:03:14.121Z,6.40
2018-02-19T18:05:41.647Z,6.03
2018-02-19T18:08:09.153Z,5.60
2018-02-19T18:10:37.438Z,5.90
2018-02-19T18:13:04.935Z,5.53
2018-02-19T18:15:33.372Z,5.63
2018-02-19T18:18:00.889Z,6.10
2018-02-19T18:20:28.390Z,5.80
2018-02-19T18:22:55.909Z,5.90
2018-02-19T18:25:23.411Z,5.20
2018-02-19T18:27:50.933Z,5.97
2018-02-19T18:30:19.197Z,6.00
2018-02-19T18:32:46.718Z,4.57
2018-02-19T18:35:14.217Z,5.10
2018-02-19T18:37:42.505Z,4.97
2018-02-19T18:40:10.794Z,5.50
2018-02-19T18:42:39.057Z,6.40
2018-02-19T18:45:07.346Z,5.50
2018-02-19T18:47:34.846Z,5.83
2018-02-19T18:50:02.379Z,5.80
2018-02-19T18:52:29.885Z,5.90
2018-02-19T18:54:57.424Z,5.60
2018-02-19T18:57:24.928Z,5.17
2018-02-19T18:59:53.193Z,5.20
2018-02-19T19:02:21.481Z,5.80
2018-02-19T19:04:48.993Z,6.00
2018-02-19T19:07:30.480Z,5.90
2018-02-19T19:10:09.985Z,5.83
2018-02-19T19:12:37.513Z,6.40
2018-02-19T19:15:05.776Z,6.33
2018-02-19T19:17:33.293Z,5.60
2018-02-19T19:20:00.794Z,5.40
2018-02-19T19:22:31.033Z,6.43
2018-02-19T19:24:58.529Z,5.43
2018-02-19T19:27:26.046Z,5.50
2018-02-19T19:29:53.548Z,5.23
2018-02-19T19:32:21.075Z,5.40
2018-02-19T19:34:49.560Z,5.77
2018-02-19T19:37:17.057Z,6.07
2018-02-19T19:39:45.364Z,6.10
2018-02-19T19:42:13.629Z,5.87
2018-02-19T19:44:43.874Z,6.13
2018-02-19T19:47:11.371Z,6.13
2018-02-19T19:49:38.897Z,5.40
2018-02-19T19:52:06.769Z,6.20
2018-02-19T19:54:34.452Z,5.70
2018-02-19T19:57:02.265Z,6.63
2018-02-19T19:59:30.058Z,5.73
2018-02-19T20:01:58.846Z,6.83
2018-02-19T20:04:26.709Z,6.50
2018-02-19T20:06:54.575Z,6.27
2018-02-19T20:09:22.655Z,6.50
2018-02-19T20:11:50.164Z,6.20
2018-02-19T20:14:18.484Z,6.10
2018-02-19T20:16:46.006Z,6.07
2018-02-19T20:19:16.245Z,6.50
2018-02-19T20:21:43.745Z,6.10
2018-02-19T20:24:11.273Z,5.40
2018-02-19T20:26:38.778Z,6.50
2018-02-19T20:29:06.305Z,5.63
2018-02-19T20:31:33.828Z,5.83
2018-02-19T20:34:01.342Z,6.57
2018-02-19T20:36:28.864Z,5.97
2018-02-19T20:38:56.723Z,5.47
2018-02-19T20:41:24.241Z,6.03
2018-02-19T20:43:53.133Z,5.63
2018-02-19T20:46:21.433Z,5.70
2018-02-19T20:48:48.967Z,5.43
2018-02-19T20:51:17.249Z,6.60
2018-02-19T20:53:45.509Z,6.90
2018-02-19T20:56:13.782Z,5.17
2018-02-19T20:58:41.317Z,5.50
2018-02-19T21:01:10.527Z,6.10
2018-02-19T21:03:38.055Z,6.23
2018-02-19T21:06:05.580Z,5.80
2018-02-19T21:08:33.104Z,5.40
2018-02-19T21:11:01.370Z,6.63
2018-02-19T21:13:28.876Z,6.23
2018-02-19T21:15:56.402Z,6.60
2018-02-19T21:18:24.661Z,5.20
2018-02-19T21:20:52.181Z,6.67
2018-02-19T21:23:19.694Z,6.60
2018-02-19T21:25:47.977Z,6.70
2018-02-19T21:28:16.241Z,6.47
2018-02-19T21:30:45.437Z,5.93
2018-02-19T21:33:13.736Z,5.43
2018-02-19T21:35:41.228Z,6.70
2018-02-19T21:38:08.757Z,6.80
2018-02-19T21:40:36.269Z,5.50
2018-02-19T21:43:03.789Z,5.50
2018-02-19T21:45:31.292Z,5.87
2018-02-19T21:48:01.341Z,5.83
2018-02-19T21:50:28.859Z,5.43
2018-02-19T21:52:56.356Z,5.63
2018-02-19T21:55:23.886Z,5.97
2018-02-19T21:57:52.153Z,6.57
2018-02-19T22:00:19.677Z,6.03
2018-02-19T22:02:47.173Z,6.20
2018-02-19T22:05:15.434Z,6.10
2018-02-19T22:07:42.957Z,6.60
2018-02-19T22:10:10.458Z,6.83
2018-02-19T22:12:37.975Z,5.50
2018-02-19T22:15:05.472Z,6.20
2018-02-19T22:17:33.734Z,5.60
2018-02-19T22:20:01.253Z,5.83
2018-02-19T22:22:28.766Z,6.00
2018-02-19T22:24:57.057Z,6.20
2018-02-19T22:27:26.274Z,5.50
2018-02-19T22:29:53.806Z,6.00
2018-02-19T22:32:21.326Z,5.63
2018-02-19T22:34:48.833Z,5.80
2018-02-19T22:37:16.345Z,6.07
2018-02-19T22:39:43.861Z,5.43
2018-02-19T22:42:11.384Z,6.40
2018-02-19T22:44:39.686Z,5.07
2018-02-19T22:47:07.462Z,5.77
2018-02-19T22:49:35.327Z,5.20
2018-02-19T22:52:03.090Z,5.40
2018-02-19T22:54:30.956Z,6.50
2018-02-19T22:56:58.490Z,6.27
2018-02-19T22:59:26.757Z,5.20
2018-02-19T23:01:55.046Z,5.23
2018-02-19T23:04:22.546Z,6.17
2018-02-19T23:06:50.876Z,6.93
2018-02-19T23:09:18.655Z,5.93
2018-02-19T23:11:46.526Z,6.03
2018-02-19T23:14:15.420Z,6.27
2018-02-19T23:16:44.098Z,5.70
2018-02-19T23:19:11.654Z,5.83
2018-02-19T23:21:39.162Z,5.70
2018-02-19T23:24:06.682Z,5.70
2018-02-19T23:26:34.175Z,6.13
2018-02-19T23:29:02.461Z,5.20
2018-02-19T23:31:30.724Z,5.80
2018-02-19T23:33:59.017Z,5.00
2018-02-19T23:36:27.272Z,5.50
2018-02-19T23:38:54.775Z,5.97
2018-02-19T23:41:23.255Z,5.47
2018-02-19T23:43:50.752Z,6.00
2018-02-19T23:46:18.273Z,5.80
2018-02-19T23:48:45.781Z,5.30
2018-02-19T23:51:13.293Z,5.90
2018-02-19T23:53:40.801Z,5.50
2018-02-19T23:56:09.067Z,6.53
2018-02-19T23:58:36.589Z,5.57
